sensor_id;sensor_type;location;lat;lon;timestamp;temperature;humidity
9730;DHT22;4904;49.152;11.004;2023-05-21T00:01:42;18.30;99.90
9730;DHT22;4904;49.152;11.004;2023-05-21T00:04:10;18.30;99.90
9730;DHT22;4904;49.152;11.004;2023-05-21T00:06:39;18.30;99.90
9730;DHT22;4904;49.152;11.004;2023-05-21T00:09:07;18.20;99.90
9730;DHT22;4904;49.152;11.004;2023-05-21T00:11:38;18.20;99.90
9730;DHT22;4904;49.152;11.004;2023-05-21T00:14:06;18.20;99.90
9730;DHT22;4904;49.152;11.004;2023-05-21T00:16:33;18.20;99.90
9730;DHT22;4904;49.152;11.004;2023-05-21T00:19:00;18.20;99.90
9730;DHT22;4904;49.152;11.004;2023-05-21T00:21:28;18.20;99.90
9730;DHT22;4904;49.152;11.004;2023-05-21T00:23:56;18.20;99.90
9730;DHT22;4904;49.152;11.004;2023-05-21T00:26:23;18.20;99.90
9730;DHT22;4904;49.152;11.004;2023-05-21T00:28:52;18.20;99.90
9730;DHT22;4904;49.152;11.004;2023-05-21T00:31:19;18.10;99.90
9730;DHT22;4904;49.152;11.004;2023-05-21T00:33:46;18.10;99.90
9730;DHT22;4904;49.152;11.004;2023-05-21T00:36:14;18.10;99.90
9730;DHT22;4904;49.152;11.004;2023-05-21T00:38:41;18.20;99.90
9730;DHT22;4904;49.152;11.004;2023-05-21T00:41:10;18.10;99.90
9730;DHT22;4904;49.152;11.004;2023-05-21T00:43:37;18.10;99.90
9730;DHT22;4904;49.152;11.004;2023-05-21T00:46:07;18.10;99.90
9730;DHT22;4904;49.152;11.004;2023-05-21T00:48:34;18.10;99.90
9730;DHT22;4904;49.152;11.004;2023-05-21T00:51:00;18.10;99.90
9730;DHT22;4904;49.152;11.004;2023-05-21T00:53:27;18.10;99.90
9730;DHT22;4904;49.152;11.004;2023-05-21T00:55:55;18.00;99.90
9730;DHT22;4904;49.152;11.004;2023-05-21T00:58:23;18.00;99.90
9730;DHT22;4904;49.152;11.004;2023-05-21T01:00:53;18.00;99.90
9730;DHT22;4904;49.152;11.004;2023-05-21T01:03:23;18.00;99.90
9730;DHT22;4904;49.152;11.004;2023-05-21T01:05:50;17.90;99.90
9730;DHT22;4904;49.152;11.004;2023-05-21T01:08:18;17.90;99.90
9730;DHT22;4904;49.152;11.004;2023-05-21T01:10:46;17.90;99.90
9730;DHT22;4904;49.152;11.004;2023-05-21T01:13:15;17.90;99.90
9730;DHT22;4904;49.152;11.004;2023-05-21T01:15:43;17.90;99.90
9730;DHT22;4904;49.152;11.004;2023-05-21T01:18:11;17.90;99.90
9730;DHT22;4904;49.152;11.004;2023-05-21T01:20:44;17.90;99.90
9730;DHT22;4904;49.152;11.004;2023-05-21T01:23:15;17.90;99.90
9730;DHT22;4904;49.152;11.004;2023-05-21T01:25:42;17.90;99.90
9730;DHT22;4904;49.152;11.004;2023-05-21T01:28:10;17.70;99.90
9730;DHT22;4904;49.152;11.004;2023-05-21T01:30:38;17.80;99.90
9730;DHT22;4904;49.152;11.004;2023-05-21T01:33:11;17.70;99.90
9730;DHT22;4904;49.152;11.004;2023-05-21T01:35:45;17.70;99.90
9730;DHT22;4904;49.152;11.004;2023-05-21T01:38:19;17.70;99.90
9730;DHT22;4904;49.152;11.004;2023-05-21T01:40:52;17.70;99.90
9730;DHT22;4904;49.152;11.004;2023-05-21T01:43:20;17.70;99.90
9730;DHT22;4904;49.152;11.004;2023-05-21T01:45:49;17.70;99.90
9730;DHT22;4904;49.152;11.004;2023-05-21T01:48:18;17.60;99.90
9730;DHT22;4904;49.152;11.004;2023-05-21T01:50:45;17.60;99.90
9730;DHT22;4904;49.152;11.004;2023-05-21T01:53:14;17.60;99.90
9730;DHT22;4904;49.152;11.004;2023-05-21T01:55:43;17.70;99.90
9730;DHT22;4904;49.152;11.004;2023-05-21T01:58:10;17.60;99.90
9730;DHT22;4904;49.152;11.004;2023-05-21T02:00:38;17.60;99.90
9730;DHT22;4904;49.152;11.004;2023-05-21T02:03:05;17.60;99.90
9730;DHT22;4904;49.152;11.004;2023-05-21T02:05:33;17.50;99.90
9730;DHT22;4904;49.152;11.004;2023-05-21T02:08:00;17.60;99.90
9730;DHT22;4904;49.152;11.004;2023-05-21T02:10:27;17.60;99.90
9730;DHT22;4904;49.152;11.004;2023-05-21T02:12:55;17.60;99.90
9730;DHT22;4904;49.152;11.004;2023-05-21T02:15:23;17.50;99.90
9730;DHT22;4904;49.152;11.004;2023-05-21T02:17:51;17.60;99.90
9730;DHT22;4904;49.152;11.004;2023-05-21T02:20:19;17.60;99.90
9730;DHT22;4904;49.152;11.004;2023-05-21T02:22:47;17.60;99.90
9730;DHT22;4904;49.152;11.004;2023-05-21T02:25:16;17.60;99.90
9730;DHT22;4904;49.152;11.004;2023-05-21T02:27:44;17.60;99.90
9730;DHT22;4904;49.152;11.004;2023-05-21T02:30:14;17.60;99.90
9730;DHT22;4904;49.152;11.004;2023-05-21T02:32:42;17.60;99.90
9730;DHT22;4904;49.152;11.004;2023-05-21T02:35:10;17.60;99.90
9730;DHT22;4904;49.152;11.004;2023-05-21T02:37:38;17.60;99.90
9730;DHT22;4904;49.152;11.004;2023-05-21T02:40:07;17.60;99.90
9730;DHT22;4904;49.152;11.004;2023-05-21T02:42:35;17.50;99.90
9730;DHT22;4904;49.152;11.004;2023-05-21T02:45:04;17.70;99.90
9730;DHT22;4904;49.152;11.004;2023-05-21T02:47:33;17.50;99.90
9730;DHT22;4904;49.152;11.004;2023-05-21T02:50:00;17.40;99.90
9730;DHT22;4904;49.152;11.004;2023-05-21T02:52:27;17.20;99.90
9730;DHT22;4904;49.152;11.004;2023-05-21T02:54:54;17.20;99.90
9730;DHT22;4904;49.152;11.004;2023-05-21T02:57:21;17.00;99.90
9730;DHT22;4904;49.152;11.004;2023-05-21T02:59:47;17.00;99.90
9730;DHT22;4904;49.152;11.004;2023-05-21T03:02:14;16.90;99.90
9730;DHT22;4904;49.152;11.004;2023-05-21T03:04:43;16.80;99.90
9730;DHT22;4904;49.152;11.004;2023-05-21T03:07:11;16.80;99.90
9730;DHT22;4904;49.152;11.004;2023-05-21T03:09:39;16.80;99.90
9730;DHT22;4904;49.152;11.004;2023-05-21T03:12:09;16.80;99.90
9730;DHT22;4904;49.152;11.004;2023-05-21T03:14:36;16.70;99.90
9730;DHT22;4904;49.152;11.004;2023-05-21T03:17:03;16.60;99.90
9730;DHT22;4904;49.152;11.004;2023-05-21T03:19:30;16.60;99.90
9730;DHT22;4904;49.152;11.004;2023-05-21T03:22:00;16.60;99.90
9730;DHT22;4904;49.152;11.004;2023-05-21T03:24:27;16.70;99.90
9730;DHT22;4904;49.152;11.004;2023-05-21T03:26:54;16.70;99.90
9730;DHT22;4904;49.152;11.004;2023-05-21T03:29:21;16.70;99.90
9730;DHT22;4904;49.152;11.004;2023-05-21T03:31:48;16.70;99.90
9730;DHT22;4904;49.152;11.004;2023-05-21T03:34:16;16.70;99.90
9730;DHT22;4904;49.152;11.004;2023-05-21T03:36:44;16.80;99.90
9730;DHT22;4904;49.152;11.004;2023-05-21T03:39:13;16.80;99.90
9730;DHT22;4904;49.152;11.004;2023-05-21T03:41:40;16.80;99.90
9730;DHT22;4904;49.152;11.004;2023-05-21T03:44:07;16.80;99.90
9730;DHT22;4904;49.152;11.004;2023-05-21T03:46:34;16.80;99.90
9730;DHT22;4904;49.152;11.004;2023-05-21T03:49:01;16.80;99.90
9730;DHT22;4904;49.152;11.004;2023-05-21T03:51:28;16.80;99.90
9730;DHT22;4904;49.152;11.004;2023-05-21T03:53:56;16.70;99.90
9730;DHT22;4904;49.152;11.004;2023-05-21T03:56:28;16.70;99.90
9730;DHT22;4904;49.152;11.004;2023-05-21T03:58:55;16.70;99.90
9730;DHT22;4904;49.152;11.004;2023-05-21T04:01:22;16.70;99.90
9730;DHT22;4904;49.152;11.004;2023-05-21T04:03:49;16.80;99.90
9730;DHT22;4904;49.152;11.004;2023-05-21T04:06:16;16.80;99.90
9730;DHT22;4904;49.152;11.004;2023-05-21T04:08:43;16.70;99.90
9730;DHT22;4904;49.152;11.004;2023-05-21T04:11:11;16.70;99.90
9730;DHT22;4904;49.152;11.004;2023-05-21T04:13:39;16.70;99.90
9730;DHT22;4904;49.152;11.004;2023-05-21T04:16:06;16.80;99.90
9730;DHT22;4904;49.152;11.004;2023-05-21T04:18:34;16.70;99.90
9730;DHT22;4904;49.152;11.004;2023-05-21T04:21:01;16.80;99.90
9730;DHT22;4904;49.152;11.004;2023-05-21T04:23:33;16.80;99.90
9730;DHT22;4904;49.152;11.004;2023-05-21T04:26:01;16.80;99.90
9730;DHT22;4904;49.152;11.004;2023-05-21T04:28:28;16.80;99.90
9730;DHT22;4904;49.152;11.004;2023-05-21T04:30:56;16.80;99.90
9730;DHT22;4904;49.152;11.004;2023-05-21T04:33:24;16.80;99.90
9730;DHT22;4904;49.152;11.004;2023-05-21T04:35:53;16.80;99.90
9730;DHT22;4904;49.152;11.004;2023-05-21T04:38:21;16.90;99.90
9730;DHT22;4904;49.152;11.004;2023-05-21T04:40:49;16.90;99.90
9730;DHT22;4904;49.152;11.004;2023-05-21T04:43:16;17.00;99.90
9730;DHT22;4904;49.152;11.004;2023-05-21T04:45:49;17.00;99.90
9730;DHT22;4904;49.152;11.004;2023-05-21T04:48:19;17.00;99.90
9730;DHT22;4904;49.152;11.004;2023-05-21T04:50:47;17.00;99.90
9730;DHT22;4904;49.152;11.004;2023-05-21T04:53:14;17.00;99.90
9730;DHT22;4904;49.152;11.004;2023-05-21T04:55:41;17.00;99.90
9730;DHT22;4904;49.152;11.004;2023-05-21T04:58:08;17.00;99.90
9730;DHT22;4904;49.152;11.004;2023-05-21T05:00:36;17.00;99.90
9730;DHT22;4904;49.152;11.004;2023-05-21T05:03:03;17.10;99.90
9730;DHT22;4904;49.152;11.004;2023-05-21T05:05:31;17.10;99.90
9730;DHT22;4904;49.152;11.004;2023-05-21T05:07:58;17.10;99.90
9730;DHT22;4904;49.152;11.004;2023-05-21T05:10:25;17.10;99.90
9730;DHT22;4904;49.152;11.004;2023-05-21T05:12:52;17.10;99.90
9730;DHT22;4904;49.152;11.004;2023-05-21T05:15:19;17.10;99.90
9730;DHT22;4904;49.152;11.004;2023-05-21T05:17:46;17.10;99.90
9730;DHT22;4904;49.152;11.004;2023-05-21T05:20:15;17.30;99.90
9730;DHT22;4904;49.152;11.004;2023-05-21T05:22:43;17.20;99.90
9730;DHT22;4904;49.152;11.004;2023-05-21T05:25:10;17.20;99.90
9730;DHT22;4904;49.152;11.004;2023-05-21T05:27:37;17.30;99.90
9730;DHT22;4904;49.152;11.004;2023-05-21T05:30:05;17.30;99.90
9730;DHT22;4904;49.152;11.004;2023-05-21T05:32:32;17.30;99.90
9730;DHT22;4904;49.152;11.004;2023-05-21T05:34:59;17.40;99.90
9730;DHT22;4904;49.152;11.004;2023-05-21T05:37:26;17.40;99.90
9730;DHT22;4904;49.152;11.004;2023-05-21T05:39:54;17.40;99.90
9730;DHT22;4904;49.152;11.004;2023-05-21T05:42:21;17.40;99.90
9730;DHT22;4904;49.152;11.004;2023-05-21T05:44:48;17.40;99.90
9730;DHT22;4904;49.152;11.004;2023-05-21T05:47:16;17.50;99.90
9730;DHT22;4904;49.152;11.004;2023-05-21T05:49:42;17.50;99.90
9730;DHT22;4904;49.152;11.004;2023-05-21T05:52:09;17.60;99.90
9730;DHT22;4904;49.152;11.004;2023-05-21T05:54:36;17.60;99.90
9730;DHT22;4904;49.152;11.004;2023-05-21T05:57:05;17.70;99.90
9730;DHT22;4904;49.152;11.004;2023-05-21T05:59:32;17.70;99.90
9730;DHT22;4904;49.152;11.004;2023-05-21T06:01:59;17.80;99.90
9730;DHT22;4904;49.152;11.004;2023-05-21T06:04:26;17.80;99.90
9730;DHT22;4904;49.152;11.004;2023-05-21T06:06:54;17.80;99.90
9730;DHT22;4904;49.152;11.004;2023-05-21T06:09:22;17.90;99.90
9730;DHT22;4904;49.152;11.004;2023-05-21T06:11:49;17.90;99.90
9730;DHT22;4904;49.152;11.004;2023-05-21T06:14:18;17.90;99.90
9730;DHT22;4904;49.152;11.004;2023-05-21T06:16:45;17.90;99.90
9730;DHT22;4904;49.152;11.004;2023-05-21T06:19:12;18.00;99.90
9730;DHT22;4904;49.152;11.004;2023-05-21T06:21:40;18.10;99.90
9730;DHT22;4904;49.152;11.004;2023-05-21T06:24:06;18.10;99.90
9730;DHT22;4904;49.152;11.004;2023-05-21T06:26:33;18.10;99.90
9730;DHT22;4904;49.152;11.004;2023-05-21T06:29:00;18.20;99.90
9730;DHT22;4904;49.152;11.004;2023-05-21T06:31:29;18.20;99.90
9730;DHT22;4904;49.152;11.004;2023-05-21T06:33:58;18.20;99.90
9730;DHT22;4904;49.152;11.004;2023-05-21T06:36:26;18.40;99.90
9730;DHT22;4904;49.152;11.004;2023-05-21T06:38:54;18.40;99.90
9730;DHT22;4904;49.152;11.004;2023-05-21T06:41:22;18.50;99.90
9730;DHT22;4904;49.152;11.004;2023-05-21T06:43:49;18.60;99.90
9730;DHT22;4904;49.152;11.004;2023-05-21T06:46:15;18.60;99.90
9730;DHT22;4904;49.152;11.004;2023-05-21T06:48:46;18.70;99.90
9730;DHT22;4904;49.152;11.004;2023-05-21T06:51:13;18.80;99.90
9730;DHT22;4904;49.152;11.004;2023-05-21T06:53:40;18.80;99.90
9730;DHT22;4904;49.152;11.004;2023-05-21T06:56:07;19.00;99.90
9730;DHT22;4904;49.152;11.004;2023-05-21T06:58:34;19.00;99.90
9730;DHT22;4904;49.152;11.004;2023-05-21T07:01:01;19.00;99.90
9730;DHT22;4904;49.152;11.004;2023-05-21T07:03:28;19.10;99.90
9730;DHT22;4904;49.152;11.004;2023-05-21T07:05:57;19.10;99.90
9730;DHT22;4904;49.152;11.004;2023-05-21T07:08:24;19.30;99.90
9730;DHT22;4904;49.152;11.004;2023-05-21T07:10:51;19.30;99.90
9730;DHT22;4904;49.152;11.004;2023-05-21T07:13:18;19.40;99.90
9730;DHT22;4904;49.152;11.004;2023-05-21T07:15:45;19.50;99.90
9730;DHT22;4904;49.152;11.004;2023-05-21T07:18:12;19.60;99.90
9730;DHT22;4904;49.152;11.004;2023-05-21T07:20:39;19.70;99.90
9730;DHT22;4904;49.152;11.004;2023-05-21T07:23:07;19.80;99.90
9730;DHT22;4904;49.152;11.004;2023-05-21T07:25:36;19.80;99.90
9730;DHT22;4904;49.152;11.004;2023-05-21T07:28:03;19.90;99.90
9730;DHT22;4904;49.152;11.004;2023-05-21T07:30:30;20.00;99.90
9730;DHT22;4904;49.152;11.004;2023-05-21T07:32:57;20.00;99.90
9730;DHT22;4904;49.152;11.004;2023-05-21T07:35:24;20.10;99.90
9730;DHT22;4904;49.152;11.004;2023-05-21T07:37:51;20.20;99.90
9730;DHT22;4904;49.152;11.004;2023-05-21T07:40:22;20.30;99.90
9730;DHT22;4904;49.152;11.004;2023-05-21T07:42:49;20.30;99.90
9730;DHT22;4904;49.152;11.004;2023-05-21T07:45:16;20.50;99.90
9730;DHT22;4904;49.152;11.004;2023-05-21T07:47:44;20.60;99.90
9730;DHT22;4904;49.152;11.004;2023-05-21T07:50:12;20.60;99.90
9730;DHT22;4904;49.152;11.004;2023-05-21T07:52:39;20.70;99.90
9730;DHT22;4904;49.152;11.004;2023-05-21T07:55:08;20.70;99.90
9730;DHT22;4904;49.152;11.004;2023-05-21T07:57:36;20.80;99.90
9730;DHT22;4904;49.152;11.004;2023-05-21T08:00:04;20.90;99.90
9730;DHT22;4904;49.152;11.004;2023-05-21T08:02:33;21.00;99.90
9730;DHT22;4904;49.152;11.004;2023-05-21T08:05:01;21.10;99.90
9730;DHT22;4904;49.152;11.004;2023-05-21T08:07:28;21.20;99.90
9730;DHT22;4904;49.152;11.004;2023-05-21T08:09:56;21.20;99.90
9730;DHT22;4904;49.152;11.004;2023-05-21T08:12:24;21.30;99.90
9730;DHT22;4904;49.152;11.004;2023-05-21T08:14:52;21.50;99.90
9730;DHT22;4904;49.152;11.004;2023-05-21T08:17:19;21.50;99.90
9730;DHT22;4904;49.152;11.004;2023-05-21T08:19:46;21.60;99.90
9730;DHT22;4904;49.152;11.004;2023-05-21T08:22:13;21.60;99.90
9730;DHT22;4904;49.152;11.004;2023-05-21T08:24:40;21.70;99.90
9730;DHT22;4904;49.152;11.004;2023-05-21T08:27:09;21.70;99.90
9730;DHT22;4904;49.152;11.004;2023-05-21T08:29:37;21.80;99.90
9730;DHT22;4904;49.152;11.004;2023-05-21T08:32:07;22.00;99.90
9730;DHT22;4904;49.152;11.004;2023-05-21T08:34:34;21.90;99.90
9730;DHT22;4904;49.152;11.004;2023-05-21T08:37:02;21.90;99.90
9730;DHT22;4904;49.152;11.004;2023-05-21T08:39:29;21.90;99.90
9730;DHT22;4904;49.152;11.004;2023-05-21T08:42:01;21.90;99.90
9730;DHT22;4904;49.152;11.004;2023-05-21T08:44:32;22.00;99.90
9730;DHT22;4904;49.152;11.004;2023-05-21T08:47:03;21.90;99.90
9730;DHT22;4904;49.152;11.004;2023-05-21T08:49:34;22.00;99.90
9730;DHT22;4904;49.152;11.004;2023-05-21T08:52:02;22.10;99.90
9730;DHT22;4904;49.152;11.004;2023-05-21T08:54:31;22.10;99.90
9730;DHT22;4904;49.152;11.004;2023-05-21T08:56:58;22.10;99.90
9730;DHT22;4904;49.152;11.004;2023-05-21T08:59:26;22.10;99.90
9730;DHT22;4904;49.152;11.004;2023-05-21T09:01:53;22.10;99.90
9730;DHT22;4904;49.152;11.004;2023-05-21T09:04:22;22.10;99.90
9730;DHT22;4904;49.152;11.004;2023-05-21T09:06:52;22.10;99.90
9730;DHT22;4904;49.152;11.004;2023-05-21T09:09:29;22.30;99.90
9730;DHT22;4904;49.152;11.004;2023-05-21T09:11:58;22.30;99.90
9730;DHT22;4904;49.152;11.004;2023-05-21T09:14:26;22.30;99.90
9730;DHT22;4904;49.152;11.004;2023-05-21T09:16:53;22.30;99.90
9730;DHT22;4904;49.152;11.004;2023-05-21T09:19:20;22.40;99.90
9730;DHT22;4904;49.152;11.004;2023-05-21T09:21:50;22.40;99.90
9730;DHT22;4904;49.152;11.004;2023-05-21T09:24:20;22.40;99.90
9730;DHT22;4904;49.152;11.004;2023-05-21T09:26:48;22.40;99.90
9730;DHT22;4904;49.152;11.004;2023-05-21T09:29:15;22.40;99.90
9730;DHT22;4904;49.152;11.004;2023-05-21T09:31:43;22.40;99.90
9730;DHT22;4904;49.152;11.004;2023-05-21T09:34:10;22.40;99.90
9730;DHT22;4904;49.152;11.004;2023-05-21T09:36:38;22.40;99.90
9730;DHT22;4904;49.152;11.004;2023-05-21T09:39:05;22.40;99.90
9730;DHT22;4904;49.152;11.004;2023-05-21T09:41:34;22.40;99.90
9730;DHT22;4904;49.152;11.004;2023-05-21T09:44:02;22.40;99.90
9730;DHT22;4904;49.152;11.004;2023-05-21T09:46:37;22.50;99.90
9730;DHT22;4904;49.152;11.004;2023-05-21T09:49:04;22.60;99.90
9730;DHT22;4904;49.152;11.004;2023-05-21T09:51:32;22.60;99.90
9730;DHT22;4904;49.152;11.004;2023-05-21T09:53:59;22.60;99.90
9730;DHT22;4904;49.152;11.004;2023-05-21T09:56:27;22.60;99.90
9730;DHT22;4904;49.152;11.004;2023-05-21T09:58:59;22.70;99.90
9730;DHT22;4904;49.152;11.004;2023-05-21T10:01:30;22.70;99.90
9730;DHT22;4904;49.152;11.004;2023-05-21T10:04:00;22.70;99.90
9730;DHT22;4904;49.152;11.004;2023-05-21T10:06:29;22.80;99.90
9730;DHT22;4904;49.152;11.004;2023-05-21T10:09:00;22.90;99.90
9730;DHT22;4904;49.152;11.004;2023-05-21T10:11:30;22.90;99.90
9730;DHT22;4904;49.152;11.004;2023-05-21T10:14:03;23.00;99.90
9730;DHT22;4904;49.152;11.004;2023-05-21T10:16:33;23.10;99.90
9730;DHT22;4904;49.152;11.004;2023-05-21T10:19:00;23.10;99.90
9730;DHT22;4904;49.152;11.004;2023-05-21T10:21:29;23.20;99.90
9730;DHT22;4904;49.152;11.004;2023-05-21T10:23:57;23.20;99.90
9730;DHT22;4904;49.152;11.004;2023-05-21T10:26:26;23.30;99.90
9730;DHT22;4904;49.152;11.004;2023-05-21T10:28:55;23.40;99.90
9730;DHT22;4904;49.152;11.004;2023-05-21T10:31:26;23.50;99.90
9730;DHT22;4904;49.152;11.004;2023-05-21T10:33:53;23.50;99.90
9730;DHT22;4904;49.152;11.004;2023-05-21T10:36:21;23.60;99.90
9730;DHT22;4904;49.152;11.004;2023-05-21T10:38:49;23.60;99.90
9730;DHT22;4904;49.152;11.004;2023-05-21T10:41:18;23.70;99.90
9730;DHT22;4904;49.152;11.004;2023-05-21T10:43:55;23.70;99.90
9730;DHT22;4904;49.152;11.004;2023-05-21T10:49:43;23.90;99.90
9730;DHT22;4904;49.152;11.004;2023-05-21T10:52:23;23.90;99.90
9730;DHT22;4904;49.152;11.004;2023-05-21T10:55:16;23.90;99.90
9730;DHT22;4904;49.152;11.004;2023-05-21T10:58:12;24.00;99.90
9730;DHT22;4904;49.152;11.004;2023-05-21T11:00:43;24.00;99.90
9730;DHT22;4904;49.152;11.004;2023-05-21T11:03:12;24.10;99.90
9730;DHT22;4904;49.152;11.004;2023-05-21T11:05:39;24.10;99.90
9730;DHT22;4904;49.152;11.004;2023-05-21T11:08:20;24.20;99.90
9730;DHT22;4904;49.152;11.004;2023-05-21T11:10:51;24.20;99.90
9730;DHT22;4904;49.152;11.004;2023-05-21T11:13:19;24.20;99.90
9730;DHT22;4904;49.152;11.004;2023-05-21T11:16:04;24.20;99.90
9730;DHT22;4904;49.152;11.004;2023-05-21T11:19:01;24.10;99.90
9730;DHT22;4904;49.152;11.004;2023-05-21T11:21:33;24.10;99.90
9730;DHT22;4904;49.152;11.004;2023-05-21T11:24:05;24.20;99.90
9730;DHT22;4904;49.152;11.004;2023-05-21T11:26:58;24.30;99.90
9730;DHT22;4904;49.152;11.004;2023-05-21T11:29:34;24.40;99.90
9730;DHT22;4904;49.152;11.004;2023-05-21T11:32:05;24.40;99.90
9730;DHT22;4904;49.152;11.004;2023-05-21T11:34:39;24.50;99.90
9730;DHT22;4904;49.152;11.004;2023-05-21T11:37:23;24.60;99.90
9730;DHT22;4904;49.152;11.004;2023-05-21T11:39:52;24.60;99.90
9730;DHT22;4904;49.152;11.004;2023-05-21T11:42:31;24.70;99.90
9730;DHT22;4904;49.152;11.004;2023-05-21T11:45:00;24.80;99.90
9730;DHT22;4904;49.152;11.004;2023-05-21T11:47:28;24.90;99.90
9730;DHT22;4904;49.152;11.004;2023-05-21T11:49:58;25.10;99.90
9730;DHT22;4904;49.152;11.004;2023-05-21T11:52:27;25.30;99.90
9730;DHT22;4904;49.152;11.004;2023-05-21T11:54:55;25.50;99.90
9730;DHT22;4904;49.152;11.004;2023-05-21T11:57:25;25.70;99.90
9730;DHT22;4904;49.152;11.004;2023-05-21T11:59:56;26.00;99.90
9730;DHT22;4904;49.152;11.004;2023-05-21T12:02:24;26.10;99.90
9730;DHT22;4904;49.152;11.004;2023-05-21T12:04:51;26.20;99.90
9730;DHT22;4904;49.152;11.004;2023-05-21T12:07:20;26.20;99.90
9730;DHT22;4904;49.152;11.004;2023-05-21T12:09:48;26.30;99.90
9730;DHT22;4904;49.152;11.004;2023-05-21T12:12:17;26.40;99.90
9730;DHT22;4904;49.152;11.004;2023-05-21T12:14:45;26.50;99.90
9730;DHT22;4904;49.152;11.004;2023-05-21T12:17:15;26.60;99.90
9730;DHT22;4904;49.152;11.004;2023-05-21T12:19:43;26.80;99.90
9730;DHT22;4904;49.152;11.004;2023-05-21T12:22:10;26.90;99.90
9730;DHT22;4904;49.152;11.004;2023-05-21T12:24:42;27.00;99.90
9730;DHT22;4904;49.152;11.004;2023-05-21T12:27:10;26.90;99.90
9730;DHT22;4904;49.152;11.004;2023-05-21T12:29:38;26.90;99.90
9730;DHT22;4904;49.152;11.004;2023-05-21T12:32:09;27.00;99.90
9730;DHT22;4904;49.152;11.004;2023-05-21T12:34:39;27.20;99.90
9730;DHT22;4904;49.152;11.004;2023-05-21T12:37:07;27.30;99.90
9730;DHT22;4904;49.152;11.004;2023-05-21T12:39:44;27.40;99.90
9730;DHT22;4904;49.152;11.004;2023-05-21T12:42:11;27.40;99.90
9730;DHT22;4904;49.152;11.004;2023-05-21T12:44:40;27.50;99.90
9730;DHT22;4904;49.152;11.004;2023-05-21T12:47:10;27.60;99.90
9730;DHT22;4904;49.152;11.004;2023-05-21T12:49:39;27.70;99.90
9730;DHT22;4904;49.152;11.004;2023-05-21T12:52:10;27.80;99.90
9730;DHT22;4904;49.152;11.004;2023-05-21T12:54:39;27.90;99.90
9730;DHT22;4904;49.152;11.004;2023-05-21T12:57:12;28.00;99.90
9730;DHT22;4904;49.152;11.004;2023-05-21T12:59:44;28.00;99.90
9730;DHT22;4904;49.152;11.004;2023-05-21T13:02:20;28.10;99.90
9730;DHT22;4904;49.152;11.004;2023-05-21T13:04:47;28.00;99.90
9730;DHT22;4904;49.152;11.004;2023-05-21T13:07:15;28.00;99.90
9730;DHT22;4904;49.152;11.004;2023-05-21T13:09:42;28.00;99.90
9730;DHT22;4904;49.152;11.004;2023-05-21T13:12:11;27.90;99.90
9730;DHT22;4904;49.152;11.004;2023-05-21T13:14:38;27.90;99.90
9730;DHT22;4904;49.152;11.004;2023-05-21T13:17:05;27.90;99.90
9730;DHT22;4904;49.152;11.004;2023-05-21T13:19:32;27.90;99.90
9730;DHT22;4904;49.152;11.004;2023-05-21T13:21:59;27.90;99.90
9730;DHT22;4904;49.152;11.004;2023-05-21T13:24:26;28.00;99.90
9730;DHT22;4904;49.152;11.004;2023-05-21T13:26:53;28.00;99.90
9730;DHT22;4904;49.152;11.004;2023-05-21T13:29:21;28.00;99.90
9730;DHT22;4904;49.152;11.004;2023-05-21T13:31:48;28.00;99.90
9730;DHT22;4904;49.152;11.004;2023-05-21T13:34:15;28.10;99.90
9730;DHT22;4904;49.152;11.004;2023-05-21T13:36:42;28.10;99.90
9730;DHT22;4904;49.152;11.004;2023-05-21T13:39:09;28.10;99.90
9730;DHT22;4904;49.152;11.004;2023-05-21T13:41:36;28.10;99.90
9730;DHT22;4904;49.152;11.004;2023-05-21T13:44:03;28.00;99.90
9730;DHT22;4904;49.152;11.004;2023-05-21T13:46:31;28.00;99.90
9730;DHT22;4904;49.152;11.004;2023-05-21T13:49:03;27.90;99.90
9730;DHT22;4904;49.152;11.004;2023-05-21T13:51:30;27.70;99.90
9730;DHT22;4904;49.152;11.004;2023-05-21T13:53:57;27.70;99.90
9730;DHT22;4904;49.152;11.004;2023-05-21T13:56:25;27.50;99.90
9730;DHT22;4904;49.152;11.004;2023-05-21T13:58:51;27.50;99.90
9730;DHT22;4904;49.152;11.004;2023-05-21T14:01:18;27.40;99.90
9730;DHT22;4904;49.152;11.004;2023-05-21T14:03:47;27.40;99.90
9730;DHT22;4904;49.152;11.004;2023-05-21T14:06:13;27.40;99.90
9730;DHT22;4904;49.152;11.004;2023-05-21T14:08:41;27.50;99.90
9730;DHT22;4904;49.152;11.004;2023-05-21T14:11:08;27.70;99.90
9730;DHT22;4904;49.152;11.004;2023-05-21T14:13:35;27.70;99.90
9730;DHT22;4904;49.152;11.004;2023-05-21T14:16:02;27.80;99.90
9730;DHT22;4904;49.152;11.004;2023-05-21T14:18:29;27.90;99.90
9730;DHT22;4904;49.152;11.004;2023-05-21T14:20:57;28.00;99.90
9730;DHT22;4904;49.152;11.004;2023-05-21T14:23:24;28.00;99.90
9730;DHT22;4904;49.152;11.004;2023-05-21T14:25:51;28.10;99.90
9730;DHT22;4904;49.152;11.004;2023-05-21T14:28:18;28.10;99.90
9730;DHT22;4904;49.152;11.004;2023-05-21T14:30:45;28.20;99.90
9730;DHT22;4904;49.152;11.004;2023-05-21T14:33:12;28.40;99.90
9730;DHT22;4904;49.152;11.004;2023-05-21T14:35:40;28.40;99.90
9730;DHT22;4904;49.152;11.004;2023-05-21T14:38:10;28.50;99.90
9730;DHT22;4904;49.152;11.004;2023-05-21T14:40:37;28.60;99.90
9730;DHT22;4904;49.152;11.004;2023-05-21T14:43:04;28.80;99.90
9730;DHT22;4904;49.152;11.004;2023-05-21T14:45:32;28.90;99.90
9730;DHT22;4904;49.152;11.004;2023-05-21T14:48:00;28.90;99.90
9730;DHT22;4904;49.152;11.004;2023-05-21T14:50:27;29.10;99.90
9730;DHT22;4904;49.152;11.004;2023-05-21T14:52:54;29.30;99.90
9730;DHT22;4904;49.152;11.004;2023-05-21T14:55:23;29.40;99.90
9730;DHT22;4904;49.152;11.004;2023-05-21T14:57:51;29.50;99.90
9730;DHT22;4904;49.152;11.004;2023-05-21T15:00:18;29.60;99.90
9730;DHT22;4904;49.152;11.004;2023-05-21T15:02:45;29.80;99.90
9730;DHT22;4904;49.152;11.004;2023-05-21T15:05:12;30.00;99.90
9730;DHT22;4904;49.152;11.004;2023-05-21T15:07:39;30.10;99.90
9730;DHT22;4904;49.152;11.004;2023-05-21T15:10:07;30.40;99.90
9730;DHT22;4904;49.152;11.004;2023-05-21T15:12:36;30.70;99.90
9730;DHT22;4904;49.152;11.004;2023-05-21T15:15:04;30.90;99.90
9730;DHT22;4904;49.152;11.004;2023-05-21T15:17:31;31.10;99.90
9730;DHT22;4904;49.152;11.004;2023-05-21T15:19:59;31.20;99.90
9730;DHT22;4904;49.152;11.004;2023-05-21T15:22:28;31.50;99.90
9730;DHT22;4904;49.152;11.004;2023-05-21T15:24:55;31.80;99.90
9730;DHT22;4904;49.152;11.004;2023-05-21T15:27:22;32.00;99.90
9730;DHT22;4904;49.152;11.004;2023-05-21T15:29:51;32.20;99.90
9730;DHT22;4904;49.152;11.004;2023-05-21T15:32:19;32.20;99.90
9730;DHT22;4904;49.152;11.004;2023-05-21T15:34:46;32.40;99.90
9730;DHT22;4904;49.152;11.004;2023-05-21T15:37:14;32.40;99.90
9730;DHT22;4904;49.152;11.004;2023-05-21T15:39:41;32.70;99.90
9730;DHT22;4904;49.152;11.004;2023-05-21T15:42:08;33.10;99.90
9730;DHT22;4904;49.152;11.004;2023-05-21T15:44:36;33.50;99.90
9730;DHT22;4904;49.152;11.004;2023-05-21T15:47:05;33.90;99.90
9730;DHT22;4904;49.152;11.004;2023-05-21T15:49:32;34.30;99.90
9730;DHT22;4904;49.152;11.004;2023-05-21T15:52:00;34.70;99.90
9730;DHT22;4904;49.152;11.004;2023-05-21T15:54:28;35.40;99.90
9730;DHT22;4904;49.152;11.004;2023-05-21T15:56:56;36.20;99.90